Time;durP1;ratioP1;P1;durP2;ratioP2;P2;SDS_P1;SDS_P2;PMS_P1;PMS_P2;Temp;Humidity;BMP_temperature;BMP_pressure;BME280_temperature;BME280_humidity;BME280_pressure;Samples;Min_cycle;Max_cycle;Signal;HPM_P1;HPM_P2
2023/12/26 00:01:37;;;;;;;12.20;4.00;;;;;;;4.78;79.56;98928.95;103441;1254;96538;-78
2023/12/26 00:04:04;;;;;;;15.00;4.60;;;;;;;4.80;79.62;98927.20;103217;1255;137789;-82
2023/12/26 00:06:31;;;;;;;14.60;4.30;;;;;;;4.80;79.73;98928.23;103421;1256;96429;-82
2023/12/26 00:08:58;;;;;;;17.30;4.10;;;;;;;4.79;79.92;98929.79;103369;1254;109977;-82
2023/12/26 00:11:25;;;;;;;15.40;4.40;;;;;;;4.78;80.01;98934.30;103216;1251;137144;-81
2023/12/26 00:13:52;;;;;;;17.50;4.50;;;;;;;4.77;80.01;98942.27;103264;1254;96329;-82
2023/12/26 00:16:19;;;;;;;13.80;4.30;;;;;;;4.76;79.97;98937.11;103254;1251;138202;-82
2023/12/26 00:18:46;;;;;;;14.10;4.00;;;;;;;4.75;80.21;98935.62;103224;1252;96452;-83
2023/12/26 00:21:13;;;;;;;13.30;5.00;;;;;;;4.74;80.45;98940.98;103245;1255;138024;-80
2023/12/26 00:23:40;;;;;;;13.00;3.80;;;;;;;4.74;80.66;98949.41;103407;1254;106659;-82
2023/12/26 00:26:06;;;;;;;12.70;4.00;;;;;;;4.76;80.62;98954.86;103370;1254;96681;-82
2023/12/26 00:28:35;;;;;;;9.80;3.80;;;;;;;4.79;80.53;98961.12;103314;1251;137951;-82
2023/12/26 00:31:03;;;;;;;16.30;4.30;;;;;;;4.81;80.49;98969.51;103512;1254;96304;-82
2023/12/26 00:33:30;;;;;;;13.90;4.10;;;;;;;4.81;80.60;98971.23;103288;1256;137642;-82
2023/12/26 00:35:59;;;;;;;14.40;4.30;;;;;;;4.80;80.21;98973.67;102647;1251;1003146;-83
2023/12/26 00:38:26;;;;;;;16.10;4.40;;;;;;;4.79;80.31;98975.10;103448;1254;96756;-83
2023/12/26 00:40:54;;;;;;;14.90;4.00;;;;;;;4.77;80.27;98981.00;103205;1254;137382;-83
2023/12/26 00:43:21;;;;;;;11.40;4.10;;;;;;;4.76;80.50;98986.72;103481;1251;96436;-82
2023/12/26 00:45:47;;;;;;;17.50;4.40;;;;;;;4.74;80.31;98995.90;103363;1257;138036;-82
2023/12/26 00:48:14;;;;;;;10.20;4.00;;;;;;;4.74;80.56;98998.48;103439;1254;106108;-82
2023/12/26 00:50:42;;;;;;;11.70;3.70;;;;;;;4.77;80.65;99005.11;103487;1258;96539;-82
2023/12/26 00:53:10;;;;;;;16.20;4.00;;;;;;;4.82;80.76;99011.85;103450;1257;137762;-82
2023/12/26 00:55:37;;;;;;;13.40;4.30;;;;;;;4.86;80.54;99008.83;103517;1251;96466;-83
2023/12/26 00:58:04;;;;;;;15.20;4.20;;;;;;;4.87;80.66;99009.67;103386;1256;137406;-83
2023/12/26 01:00:30;;;;;;;17.50;4.20;;;;;;;4.87;80.60;99008.30;103459;1254;106940;-83
2023/12/26 01:02:57;;;;;;;17.90;5.10;;;;;;;4.84;80.45;99009.20;103508;1254;96584;-83
2023/12/26 01:05:25;;;;;;;12.40;4.50;;;;;;;4.80;80.82;99005.88;103303;1253;137844;-83
2023/12/26 01:07:52;;;;;;;14.70;3.60;;;;;;;4.78;81.04;99001.64;103470;1251;96449;-81
2023/12/26 01:10:19;;;;;;;10.20;4.00;;;;;;;4.78;81.02;98999.41;103373;1256;137793;-81
2023/12/26 01:12:46;;;;;;;13.90;3.60;;;;;;;4.75;81.33;99002.92;103415;1254;106861;-82
2023/12/26 01:15:14;;;;;;;13.40;3.90;;;;;;;4.77;81.19;99002.35;103319;1254;138913;-80
2023/12/26 01:17:41;;;;;;;12.40;3.60;;;;;;;4.79;81.39;99000.91;103493;1254;107607;-82
2023/12/26 01:20:10;;;;;;;13.30;3.80;;;;;;;4.81;81.42;98993.80;103440;1254;97810;-82
2023/12/26 01:22:37;;;;;;;14.90;4.30;;;;;;;4.83;81.31;98992.35;103421;1251;138208;-82
2023/12/26 01:25:05;;;;;;;12.90;4.10;;;;;;;4.84;81.15;98990.63;103507;1251;107286;-82
2023/12/26 01:27:33;;;;;;;17.90;4.20;;;;;;;4.84;81.12;98990.78;103321;1254;137419;-82
2023/12/26 01:30:01;;;;;;;12.20;4.10;;;;;;;4.80;81.15;98992.09;103460;1257;107199;-81
2023/12/26 01:32:28;;;;;;;16.20;3.90;;;;;;;4.79;80.99;98991.10;103560;1254;96463;-81
2023/12/26 01:34:55;;;;;;;14.40;3.50;;;;;;;4.79;81.07;98989.02;103407;1254;137925;-81
2023/12/26 01:37:22;;;;;;;10.40;3.60;;;;;;;4.81;81.13;98986.39;103444;1253;107059;-81
2023/12/26 01:39:49;;;;;;;11.20;3.90;;;;;;;4.84;80.90;98980.98;103337;1252;138207;-82
2023/12/26 01:42:17;;;;;;;16.40;4.10;;;;;;;4.89;80.99;98977.77;103446;1254;108591;-82
2023/12/26 01:44:44;;;;;;;14.80;4.00;;;;;;;4.90;80.94;98963.58;103520;1251;98157;-82
2023/12/26 01:47:13;;;;;;;19.80;4.60;;;;;;;4.97;80.83;98965.95;103395;1253;137627;-82
2023/12/26 01:49:42;;;;;;;12.30;4.00;;;;;;;4.99;80.84;98976.90;103379;1256;107067;-81
2023/12/26 01:52:11;;;;;;;14.10;4.10;;;;;;;5.03;80.69;98979.73;103389;1252;139298;-82
2023/12/26 01:54:39;;;;;;;10.60;3.60;;;;;;;5.05;80.64;98980.39;103468;1253;106834;-81
2023/12/26 01:57:08;;;;;;;13.10;3.50;;;;;;;5.07;80.67;98985.47;103452;1254;96497;-81
2023/12/26 01:59:36;;;;;;;12.30;4.00;;;;;;;5.09;80.78;98981.09;103504;1251;110177;-80
2023/12/26 02:02:03;;;;;;;14.60;4.50;;;;;;;5.10;80.62;98978.13;103431;1254;108519;-80
2023/12/26 02:04:30;;;;;;;13.10;4.00;;;;;;;5.15;80.74;98977.96;103418;1251;138552;-81
2023/12/26 02:06:58;;;;;;;11.60;3.80;;;;;;;5.20;80.73;98978.70;103455;1251;107714;-81
2023/12/26 02:09:26;;;;;;;12.20;3.50;;;;;;;5.24;80.63;98973.60;103373;1251;137752;-80
2023/12/26 02:11:54;;;;;;;11.30;3.70;;;;;;;5.27;80.78;98972.80;103474;1253;109081;-80
2023/12/26 02:14:22;;;;;;;14.60;4.40;;;;;;;5.30;80.72;98981.64;103436;1251;107213;-80
2023/12/26 02:16:50;;;;;;;17.30;4.40;;;;;;;5.33;80.95;98978.63;102572;1254;1003412;-80
2023/12/26 02:19:17;;;;;;;15.00;3.90;;;;;;;5.33;80.98;98975.52;103407;1251;107789;-80
2023/12/26 02:21:44;;;;;;;11.50;3.90;;;;;;;5.33;80.92;98974.16;103318;1256;139262;-80
2023/12/26 02:24:11;;;;;;;12.20;3.90;;;;;;;5.33;81.08;98967.25;103537;1253;109913;-80
2023/12/26 02:26:42;;;;;;;15.00;4.00;;;;;;;5.33;81.26;98960.52;103485;1254;106684;-80
2023/12/26 02:29:10;;;;;;;11.90;4.00;;;;;;;5.36;81.37;98956.64;103359;1252;138729;-80
2023/12/26 02:31:38;;;;;;;10.80;3.70;;;;;;;5.38;81.59;98952.96;103363;1252;107631;-80
2023/12/26 02:34:05;;;;;;;16.30;4.30;;;;;;;5.45;81.52;98955.68;103366;1252;137800;-79
2023/12/26 02:36:32;;;;;;;13.10;4.30;;;;;;;5.49;81.71;98956.42;103433;1253;109005;-79
2023/12/26 02:39:00;;;;;;;10.60;4.30;;;;;;;5.53;81.78;98961.98;103413;1253;106669;-80
2023/12/26 02:41:27;;;;;;;14.70;4.00;;;;;;;5.59;81.91;98950.23;103388;1253;137371;-79
2023/12/26 02:43:54;;;;;;;17.00;4.10;;;;;;;5.62;81.89;98949.44;103410;1256;107219;-79
2023/12/26 02:46:21;;;;;;;9.90;4.40;;;;;;;5.62;81.72;98954.30;103305;1254;137904;-79
2023/12/26 02:48:48;;;;;;;11.10;3.90;;;;;;;5.61;81.95;98955.70;103392;1254;110473;-78
2023/12/26 02:51:15;;;;;;;11.80;3.50;;;;;;;5.62;81.97;98957.55;103122;1253;139888;-77
2023/12/26 02:53:42;;;;;;;11.80;4.10;;;;;;;5.61;82.19;98958.60;103429;1252;96922;-78
2023/12/26 02:56:10;;;;;;;11.70;4.00;;;;;;;5.65;82.06;98962.09;103467;1252;108040;-79
2023/12/26 02:58:37;;;;;;;11.60;3.60;;;;;;;5.70;82.18;98959.17;103390;1253;137992;-80
2023/12/26 03:01:03;;;;;;;10.90;3.80;;;;;;;5.74;81.95;98961.63;103338;1253;108978;-80
2023/12/26 03:03:30;;;;;;;19.20;4.40;;;;;;;5.78;81.96;98956.14;103376;1253;139683;-78
2023/12/26 03:05:57;;;;;;;12.90;3.70;;;;;;;5.82;82.12;98952.07;103445;1252;96448;-78
2023/12/26 03:08:24;;;;;;;10.30;3.80;;;;;;;5.83;82.03;98950.30;103410;1252;107359;-79
2023/12/26 03:10:51;;;;;;;13.80;4.20;;;;;;;5.85;82.00;98944.89;103220;1252;138008;-77
2023/12/26 03:13:18;;;;;;;9.20;3.50;;;;;;;5.82;81.93;98942.73;103377;1256;110005;-78
2023/12/26 03:15:45;;;;;;;9.50;3.30;;;;;;;5.80;82.02;98943.84;103307;1253;138050;-78
2023/12/26 03:18:12;;;;;;;11.70;3.60;;;;;;;5.82;82.11;98939.64;103402;1253;96991;-78
2023/12/26 03:20:39;;;;;;;10.60;3.80;;;;;;;5.84;82.20;98930.93;103477;1250;105951;-78
2023/12/26 03:23:06;;;;;;;11.80;4.00;;;;;;;5.89;82.13;98924.39;103367;1257;138521;-78
2023/12/26 03:25:33;;;;;;;11.20;4.00;;;;;;;5.94;82.16;98923.02;103519;1251;109219;-78
2023/12/26 03:28:00;;;;;;;10.60;4.50;;;;;;;5.99;82.22;98916.98;103364;1255;137452;-79
2023/12/26 03:30:27;;;;;;;12.50;4.40;;;;;;;6.08;82.06;98903.40;103446;1253;96486;-79
2023/12/26 03:32:54;;;;;;;11.30;4.50;;;;;;;6.14;82.18;98904.58;103540;1251;108358;-78
2023/12/26 03:35:21;;;;;;;12.30;4.80;;;;;;;6.20;82.03;98904.52;103422;1250;137628;-78
2023/12/26 03:37:48;;;;;;;12.20;4.50;;;;;;;6.24;82.09;98903.15;103491;1255;109297;-78
2023/12/26 03:40:16;;;;;;;11.80;4.20;;;;;;;6.22;81.62;98899.95;103445;1250;137807;-78
2023/12/26 03:42:45;;;;;;;12.90;4.20;;;;;;;6.16;81.42;98896.39;103520;1252;96898;-77
2023/12/26 03:45:12;;;;;;;10.90;4.00;;;;;;;6.14;81.39;98900.10;103281;1253;138343;-77
2023/12/26 03:47:39;;;;;;;12.80;4.00;;;;;;;6.14;81.64;98898.55;103455;1254;96462;-78
2023/12/26 03:50:10;;;;;;;12.20;4.30;;;;;;;6.15;81.51;98895.73;103495;1252;109191;-77
2023/12/26 03:52:37;;;;;;;11.20;3.80;;;;;;;6.13;81.31;98891.52;103720;1250;136329;-76
2023/12/26 03:55:04;;;;;;;11.90;4.20;;;;;;;6.11;81.41;98876.91;103526;1252;96547;-77
2023/12/26 03:57:31;;;;;;;13.40;4.50;;;;;;;6.06;81.48;98872.92;103351;1252;137444;-77
2023/12/26 03:59:58;;;;;;;12.30;4.10;;;;;;;6.01;81.46;98872.05;103400;1253;96392;-75
2023/12/26 04:02:25;;;;;;;9.90;3.30;;;;;;;5.94;81.56;98873.00;103460;1252;109993;-76
2023/12/26 04:04:51;;;;;;;11.00;3.50;;;;;;;5.89;81.76;98870.56;103543;1251;138476;-76
2023/12/26 04:07:18;;;;;;;11.80;3.60;;;;;;;5.85;81.94;98867.95;103357;1252;98080;-76
2023/12/26 04:09:46;;;;;;;9.60;3.50;;;;;;;5.80;82.05;98858.14;103354;1254;139216;-77
2023/12/26 04:12:13;;;;;;;11.30;3.70;;;;;;;5.77;82.30;98855.48;103406;1256;96452;-77
2023/12/26 04:14:40;;;;;;;12.60;3.50;;;;;;;5.72;82.44;98852.16;103454;1252;109062;-76
2023/12/26 04:17:07;;;;;;;10.90;3.80;;;;;;;5.73;82.68;98848.17;103250;1256;137741;-78
2023/12/26 04:19:33;;;;;;;10.00;3.50;;;;;;;5.75;82.97;98845.34;103377;1254;97141;-76
2023/12/26 04:22:00;;;;;;;12.50;4.00;;;;;;;5.78;82.83;98843.70;103315;1254;137307;-76
2023/12/26 04:24:27;;;;;;;10.20;3.50;;;;;;;5.80;83.00;98841.20;103456;1256;96576;-76
2023/12/26 04:26:54;;;;;;;9.20;3.00;;;;;;;5.78;82.98;98838.88;103474;1252;110198;-75
2023/12/26 04:29:21;;;;;;;7.40;3.10;;;;;;;5.77;83.15;98836.50;103316;1251;137786;-75
2023/12/26 04:31:48;;;;;;;10.60;3.60;;;;;;;5.79;83.35;98832.10;103504;1250;98334;-77
2023/12/26 04:34:15;;;;;;;11.40;3.50;;;;;;;5.83;83.28;98832.31;103306;1252;138722;-76
2023/12/26 04:36:42;;;;;;;10.20;3.90;;;;;;;5.87;83.44;98830.59;103392;1256;97772;-76
2023/12/26 04:39:09;;;;;;;12.50;3.60;;;;;;;5.90;83.51;98831.73;103475;1252;110607;-77
2023/12/26 04:41:36;;;;;;;16.80;3.90;;;;;;;5.90;83.54;98826.20;103450;1256;107525;-76
2023/12/26 04:44:03;;;;;;;9.00;4.20;;;;;;;5.89;83.61;98824.67;103501;1253;97773;-77
2023/12/26 04:46:30;;;;;;;14.90;4.10;;;;;;;5.86;83.81;98822.20;103328;1254;137309;-77
2023/12/26 04:48:57;;;;;;;10.10;3.60;;;;;;;5.85;84.02;98820.17;103426;1253;97775;-76
2023/12/26 04:51:28;;;;;;;11.00;3.60;;;;;;;5.84;84.09;98819.70;103356;1254;138435;-75
2023/12/26 04:53:55;;;;;;;14.70;3.90;;;;;;;5.82;84.11;98815.11;103546;1256;106801;-75
2023/12/26 04:56:23;;;;;;;9.20;3.10;;;;;;;5.79;84.39;98808.14;103321;1252;97749;-77
2023/12/26 04:58:52;;;;;;;9.80;3.60;;;;;;;5.77;84.50;98802.69;103332;1253;139521;-76
2023/12/26 05:01:22;;;;;;;7.70;3.30;;;;;;;5.74;84.76;98799.50;103329;1252;97789;-76
2023/12/26 05:03:49;;;;;;;9.80;3.40;;;;;;;5.73;85.10;98796.59;103300;1250;139545;-74
2023/12/26 05:06:20;;;;;;;8.60;3.50;;;;;;;5.71;85.25;98795.29;103367;1252;107954;-75
2023/12/26 05:08:48;;;;;;;10.80;3.80;;;;;;;5.69;85.52;98794.18;103421;1250;97805;-75
2023/12/26 05:11:23;;;;;;;8.50;3.70;;;;;;;5.66;85.75;98782.55;103279;1256;138336;-75
2023/12/26 05:13:50;;;;;;;10.20;3.70;;;;;;;5.64;86.34;98778.17;103575;1250;98362;-76
2023/12/26 05:16:18;;;;;;;13.60;4.00;;;;;;;5.60;86.63;98773.32;103361;1253;138197;-74
2023/12/26 05:18:45;;;;;;;7.10;3.90;;;;;;;5.54;87.45;98770.73;103250;1253;105693;-75
2023/12/26 05:21:20;;;;;;;11.50;3.80;;;;;;;5.52;87.78;98773.08;103239;1253;137232;-74
2023/12/26 05:23:47;;;;;;;9.50;3.70;;;;;;;5.45;88.57;98760.38;103263;1253;107201;-74
2023/12/26 05:26:15;;;;;;;9.70;3.70;;;;;;;5.43;89.27;98762.34;103324;1252;98365;-73
2023/12/26 05:28:44;;;;;;;9.70;3.70;;;;;;;5.40;89.65;98759.20;103317;1252;137976;-74
2023/12/26 05:31:11;;;;;;;12.00;3.50;;;;;;;5.38;90.24;98749.93;103439;1253;107833;-76
2023/12/26 05:33:38;;;;;;;10.00;3.70;;;;;;;5.36;90.61;98747.56;103284;1255;138557;-75
2023/12/26 05:36:07;;;;;;;12.10;4.10;;;;;;;5.36;91.05;98739.29;103392;1254;109005;-76
2023/12/26 05:38:35;;;;;;;8.10;3.60;;;;;;;5.35;91.41;98733.65;103439;1250;96360;-75
2023/12/26 05:41:05;;;;;;;7.10;3.10;;;;;;;5.38;91.78;98733.02;103360;1251;138242;-73
2023/12/26 05:43:32;;;;;;;9.20;3.60;;;;;;;5.40;92.47;98729.70;103423;1256;107763;-75
2023/12/26 05:46:00;;;;;;;9.30;3.50;;;;;;;5.42;92.86;98727.04;103273;1253;138208;-76
2023/12/26 05:48:27;;;;;;;9.60;3.40;;;;;;;5.47;93.22;98726.00;103410;1252;107699;-75
2023/12/26 05:50:54;;;;;;;4.40;3.00;;;;;;;5.53;93.61;98722.16;103363;1256;97711;-74
2023/12/26 05:53:22;;;;;;;7.90;3.20;;;;;;;5.59;93.93;98718.69;103328;1254;140138;-75
2023/12/26 05:55:49;;;;;;;7.60;3.20;;;;;;;5.62;94.40;98712.52;103352;1253;108010;-75
2023/12/26 05:58:16;;;;;;;5.20;2.90;;;;;;;5.67;94.76;98706.33;103337;1256;138347;-75
2023/12/26 06:00:43;;;;;;;7.00;3.10;;;;;;;5.70;95.17;98704.80;103398;1252;107779;-74
2023/12/26 06:03:11;;;;;;;6.60;3.10;;;;;;;5.74;95.87;98697.60;103171;1253;138672;-74
2023/12/26 06:05:39;;;;;;;6.00;3.10;;;;;;;5.77;96.23;98697.33;103448;1252;111424;-74
2023/12/26 06:08:07;;;;;;;6.30;3.00;;;;;;;5.78;96.31;98691.58;103443;1252;107934;-75
2023/12/26 06:10:34;;;;;;;5.10;3.10;;;;;;;5.82;97.61;98687.45;103204;1252;138339;-75
2023/12/26 06:13:01;;;;;;;6.90;3.40;;;;;;;5.84;97.79;98682.73;103392;1256;109004;-74
2023/12/26 06:15:28;;;;;;;6.10;3.20;;;;;;;5.87;98.17;98680.88;103396;1256;138749;-75
2023/12/26 06:17:55;;;;;;;6.20;3.50;;;;;;;5.89;98.33;98675.63;103630;1252;111291;-74
2023/12/26 06:20:24;;;;;;;5.70;3.60;;;;;;;5.91;98.94;98673.19;103410;1252;106694;-73
2023/12/26 06:22:51;;;;;;;5.40;2.80;;;;;;;5.90;99.54;98666.31;103387;1250;138232;-74
2023/12/26 06:25:18;;;;;;;6.90;3.30;;;;;;;5.91;99.95;98662.80;103485;1253;106961;-74
2023/12/26 06:27:46;;;;;;;6.10;3.60;;;;;;;5.94;100.00;98661.85;103296;1256;139805;-76
2023/12/26 06:30:17;;;;;;;7.80;3.30;;;;;;;5.98;100.00;98658.23;103507;1252;112311;-75
2023/12/26 06:32:44;;;;;;;5.80;3.00;;;;;;;6.01;100.00;98650.55;103402;1252;107511;-73
2023/12/26 06:35:11;;;;;;;4.70;2.70;;;;;;;6.07;100.00;98651.52;103328;1255;139207;-76
2023/12/26 06:37:39;;;;;;;4.50;2.70;;;;;;;6.12;100.00;98645.13;103402;1252;108672;-74
2023/12/26 06:40:08;;;;;;;4.30;2.60;;;;;;;6.17;100.00;98641.30;103393;1255;138645;-75
2023/12/26 06:42:35;;;;;;;4.20;2.50;;;;;;;6.23;100.00;98635.01;103438;1252;111980;-75
2023/12/26 06:45:02;;;;;;;3.90;2.70;;;;;;;6.27;100.00;98637.92;103471;1252;106873;-76
2023/12/26 06:47:29;;;;;;;4.60;2.70;;;;;;;6.31;100.00;98632.59;103291;1252;139941;-75
2023/12/26 07:28:59;;;;;;;4.00;3.00;;;;;;;6.91;100.00;98583.98;102286;1263;138969;-75
2023/12/26 07:31:26;;;;;;;3.60;3.00;;;;;;;6.92;100.00;98577.34;102592;1265;108359;-75
2023/12/26 07:33:53;;;;;;;3.10;2.60;;;;;;;6.95;100.00;98573.06;102437;1264;138619;-76
2023/12/26 07:36:21;;;;;;;4.00;2.90;;;;;;;7.00;100.00;98576.98;102633;1262;110563;-74
2023/12/26 07:38:48;;;;;;;3.20;2.80;;;;;;;7.04;100.00;98574.06;102657;1264;108041;-76
2023/12/26 07:41:15;;;;;;;3.20;2.60;;;;;;;7.05;100.00;98572.11;102461;1264;138339;-75
2023/12/26 07:43:41;;;;;;;3.60;3.70;;;;;;;7.06;100.00;98571.55;102698;1264;106469;-75
2023/12/26 07:46:08;;;;;;;3.10;2.60;;;;;;;7.09;100.00;98564.32;102552;1263;138723;-75
2023/12/26 07:48:35;;;;;;;3.70;2.90;;;;;;;7.12;100.00;98561.06;102537;1262;112483;-75
2023/12/26 07:51:02;;;;;;;4.00;3.00;;;;;;;7.14;100.00;98558.39;102634;1262;106032;-74
2023/12/26 07:53:29;;;;;;;2.50;2.30;;;;;;;7.13;100.00;98554.09;102478;1267;138890;-75
2023/12/26 07:55:56;;;;;;;2.90;2.30;;;;;;;7.13;100.00;98543.38;102599;1262;107651;-75
2023/12/26 07:58:23;;;;;;;2.80;2.40;;;;;;;7.14;100.00;98548.35;102414;1267;139495;-77
2023/12/26 08:00:50;;;;;;;3.60;2.70;;;;;;;7.15;100.00;98546.09;102434;1264;112168;-74
2023/12/26 08:03:17;;;;;;;3.60;2.70;;;;;;;7.18;100.00;98543.86;102473;1267;108094;-74
2023/12/26 08:05:45;;;;;;;3.70;2.60;;;;;;;7.21;100.00;98544.05;102364;1264;138693;-73
2023/12/26 08:08:12;;;;;;;4.00;2.60;;;;;;;7.27;100.00;98539.48;102504;1262;107949;-74
2023/12/26 08:10:41;;;;;;;3.70;2.40;;;;;;;7.33;100.00;98543.36;102452;1264;138578;-75
2023/12/26 08:13:08;;;;;;;2.50;2.00;;;;;;;7.41;100.00;98541.11;102534;1267;109936;-73
2023/12/26 08:15:35;;;;;;;2.40;2.10;;;;;;;7.48;100.00;98545.55;102329;1267;138912;-73
2023/12/26 08:18:02;;;;;;;2.10;1.90;;;;;;;7.55;100.00;98539.86;102611;1266;98340;-73
2023/12/26 08:20:29;;;;;;;2.40;2.10;;;;;;;7.62;100.00;98533.87;102548;1262;106856;-73
2023/12/26 08:22:56;;;;;;;4.30;1.90;;;;;;;7.69;100.00;98531.80;102369;1262;138497;-73
2023/12/26 08:25:23;;;;;;;2.30;1.70;;;;;;;7.76;100.00;98524.71;102547;1262;111521;-73
2023/12/26 08:27:50;;;;;;;1.70;1.50;;;;;;;7.87;100.00;98523.30;102387;1263;139928;-73
2023/12/26 08:30:18;;;;;;;2.10;1.60;;;;;;;7.96;100.00;98522.52;102445;1265;98366;-73
2023/12/26 08:32:45;;;;;;;1.60;1.40;;;;;;;8.07;100.00;98522.86;102499;1264;106942;-72
2023/12/26 08:35:12;;;;;;;2.10;1.30;;;;;;;8.16;100.00;98521.38;102373;1265;138528;-73
2023/12/26 08:37:39;;;;;;;2.00;1.20;;;;;;;8.25;100.00;98519.70;102438;1265;110698;-74
2023/12/26 08:40:08;;;;;;;1.10;1.00;;;;;;;8.33;100.00;98526.23;102319;1265;138717;-71
2023/12/26 08:42:35;;;;;;;1.30;1.20;;;;;;;8.40;100.00;98511.65;102666;1265;97834;-74
2023/12/26 08:45:02;;;;;;;1.30;1.00;;;;;;;8.49;100.00;98517.99;102508;1265;107018;-72
2023/12/26 08:47:29;;;;;;;1.30;1.10;;;;;;;8.57;100.00;98518.11;102425;1267;138795;-72
2023/12/26 08:49:56;;;;;;;1.40;1.00;;;;;;;8.62;100.00;98515.93;102508;1268;112533;-72
2023/12/26 08:52:23;;;;;;;2.30;1.00;;;;;;;8.68;100.00;98517.88;102335;1267;139263;-71
2023/12/26 08:54:50;;;;;;;1.70;1.20;;;;;;;8.75;100.00;98520.47;102465;1264;98338;-75
2023/12/26 08:57:17;;;;;;;1.10;1.00;;;;;;;8.78;100.00;98511.27;102570;1265;108986;-76
2023/12/26 08:59:44;;;;;;;1.40;1.10;;;;;;;8.84;100.00;98514.47;102369;1267;138328;-74
2023/12/26 09:02:11;;;;;;;2.40;0.90;;;;;;;8.89;100.00;98510.02;102500;1262;111294;-74
2023/12/26 09:04:38;;;;;;;1.50;1.20;;;;;;;8.94;100.00;98516.14;102658;1266;139095;-71
2023/12/26 09:07:05;;;;;;;1.40;1.20;;;;;;;8.98;100.00;98505.88;102445;1262;97827;-72
2023/12/26 09:09:32;;;;;;;1.20;1.10;;;;;;;9.04;100.00;98512.19;102199;1265;138352;-71
2023/12/26 09:11:59;;;;;;;1.70;1.20;;;;;;;9.06;100.00;98516.34;102470;1270;97730;-71
2023/12/26 09:14:26;;;;;;;1.50;1.10;;;;;;;9.11;100.00;98511.59;102440;1262;111592;-71
2023/12/26 09:16:54;;;;;;;2.40;1.20;;;;;;;9.15;100.00;98512.23;102411;1266;138376;-72
2023/12/26 09:19:21;;;;;;;2.80;1.20;;;;;;;9.18;100.00;98514.05;102519;1264;97799;-74
2023/12/26 09:21:48;;;;;;;1.30;1.00;;;;;;;9.21;100.00;98519.77;102285;1262;138418;-73
2023/12/26 09:24:15;;;;;;;1.30;1.10;;;;;;;9.23;100.00;98519.27;102523;1266;97818;-72
2023/12/26 09:26:42;;;;;;;1.30;1.10;;;;;;;9.28;100.00;98518.81;102488;1263;111201;-71
2023/12/26 09:29:09;;;;;;;1.90;1.30;;;;;;;9.30;100.00;98515.92;102260;1265;138654;-72
2023/12/26 09:31:36;;;;;;;2.90;1.60;;;;;;;9.32;100.00;98521.05;102537;1263;97809;-72
2023/12/26 09:34:03;;;;;;;1.90;1.20;;;;;;;9.33;100.00;98515.77;102422;1265;138611;-72
2023/12/26 09:36:30;;;;;;;3.10;1.30;;;;;;;9.36;100.00;98518.42;102512;1267;97780;-72
2023/12/26 09:38:56;;;;;;;1.80;1.20;;;;;;;9.40;100.00;98520.63;102511;1263;111350;-74
2023/12/26 09:41:26;;;;;;;1.50;1.10;;;;;;;9.40;100.00;98517.30;102249;1265;137273;-74
2023/12/26 09:43:53;;;;;;;1.30;1.00;;;;;;;9.45;100.00;98520.52;102510;1265;97800;-73
2023/12/26 09:46:21;;;;;;;3.40;1.10;;;;;;;9.49;100.00;98524.44;102406;1264;138396;-75
2023/12/26 09:48:47;;;;;;;2.80;1.30;;;;;;;9.50;100.00;98529.76;102357;1269;98085;-74
2023/12/26 09:51:21;;;;;;;1.70;1.10;;;;;;;9.54;100.00;98533.73;102497;1264;110681;-74
2023/12/26 09:53:55;;;;;;;2.10;1.40;;;;;;;9.56;100.00;98533.27;102684;1263;138439;-72
2023/12/26 09:56:23;;;;;;;2.00;1.30;;;;;;;9.56;100.00;98535.30;102541;1267;98274;-77
2023/12/26 09:58:51;;;;;;;2.40;1.50;;;;;;;9.58;100.00;98532.08;102432;1267;141164;-78
2023/12/26 10:01:19;;;;;;;2.40;1.40;;;;;;;9.61;100.00;98538.02;102564;1267;97827;-77
2023/12/26 10:03:47;;;;;;;1.70;1.50;;;;;;;9.61;100.00;98534.39;102483;1267;139017;-76
2023/12/26 10:06:15;;;;;;;3.40;1.40;;;;;;;9.59;100.00;98534.30;102478;1265;107117;-77
2023/12/26 10:08:42;;;;;;;2.40;1.50;;;;;;;9.59;100.00;98547.16;102535;1263;98319;-71
2023/12/26 10:11:15;;;;;;;4.40;2.50;;;;;;;9.60;100.00;98547.59;102328;1265;138466;-76
2023/12/26 10:13:50;;;;;;;2.10;1.50;;;;;;;9.62;100.00;98547.11;102578;1267;97840;-76
2023/12/26 10:16:18;;;;;;;2.10;1.40;;;;;;;9.64;100.00;98551.90;102454;1263;139711;-72
2023/12/26 10:18:44;;;;;;;2.00;1.30;;;;;;;9.66;100.00;98552.96;102525;1265;108813;-71
2023/12/26 10:21:12;;;;;;;1.60;1.40;;;;;;;9.67;100.00;98557.41;102486;1267;97909;-72
2023/12/26 10:23:39;;;;;;;2.80;1.50;;;;;;;9.65;100.00;98563.42;102232;1263;138598;-71
2023/12/26 10:26:07;;;;;;;1.60;1.20;;;;;;;9.66;100.00;98575.33;102523;1265;97935;-74
2023/12/26 10:28:39;;;;;;;2.00;1.30;;;;;;;9.65;100.00;98570.91;102498;1265;139611;-74
2023/12/26 10:31:14;;;;;;;1.30;1.00;;;;;;;9.64;100.00;98582.09;102479;1266;106404;-73
2023/12/26 10:33:42;;;;;;;;;;;;;;;9.66;100.00;98580.58;102448;1262;138635;-72
2023/12/26 10:36:11;;;;;;;2.10;1.30;;;;;;;9.65;100.00;98592.27;102556;1264;107848;-74
2023/12/26 10:38:39;;;;;;;1.90;1.30;;;;;;;9.64;100.00;98580.36;102465;1262;97826;-74
2023/12/26 10:41:08;;;;;;;1.30;1.10;;;;;;;9.62;100.00;98585.98;102306;1268;138301;-74
2023/12/26 10:43:37;;;;;;;1.60;1.50;;;;;;;9.60;100.00;98592.71;102453;1267;107234;-73
2023/12/26 10:46:07;;;;;;;1.40;1.20;;;;;;;9.64;100.00;98599.61;102439;1265;138547;-73
2023/12/26 10:48:35;;;;;;;1.70;1.40;;;;;;;9.66;100.00;98599.67;102553;1262;105661;-73
2023/12/26 10:51:03;;;;;;;2.40;1.60;;;;;;;9.73;100.00;98613.91;102571;1264;97908;-73
2023/12/26 10:53:36;;;;;;;1.80;1.50;;;;;;;9.75;100.00;98611.19;102474;1262;138367;-73
2023/12/26 10:56:04;;;;;;;2.70;1.80;;;;;;;9.77;100.00;98610.23;102581;1265;107746;-74
2023/12/26 10:58:32;;;;;;;2.60;1.90;;;;;;;9.75;100.00;98601.84;102313;1265;139063;-71
2023/12/26 11:01:00;;;;;;;3.00;2.10;;;;;;;9.75;100.00;98599.73;102438;1262;107694;-74
2023/12/26 11:03:28;;;;;;;2.80;1.80;;;;;;;9.75;100.00;98592.28;102452;1262;97773;-74
2023/12/26 11:05:55;;;;;;;3.50;1.90;;;;;;;9.78;100.00;98601.98;102558;1266;109406;-74
2023/12/26 11:08:25;;;;;;;2.60;1.50;;;;;;;9.81;100.00;98596.23;102439;1262;107992;-72
2023/12/26 11:10:52;;;;;;;1.90;1.50;;;;;;;9.84;100.00;98601.96;102367;1263;139002;-71
2023/12/26 11:13:19;;;;;;;2.40;1.80;;;;;;;9.84;100.00;98606.34;102499;1265;107378;-73
2023/12/26 11:15:47;;;;;;;2.90;2.00;;;;;;;9.82;100.00;98603.97;102377;1267;139240;-73
2023/12/26 11:18:14;;;;;;;3.50;1.80;;;;;;;9.84;100.00;98609.27;102472;1267;112348;-70
2023/12/26 11:20:42;;;;;;;2.50;1.50;;;;;;;9.86;99.99;98614.02;102389;1262;108700;-69
2023/12/26 11:23:10;;;;;;;2.70;1.40;;;;;;;9.86;99.86;98612.31;102442;1266;139430;-70
2023/12/26 11:25:37;;;;;;;2.20;1.50;;;;;;;9.85;99.44;98612.70;102573;1268;108053;-73
2023/12/26 11:28:05;;;;;;;2.20;1.50;;;;;;;9.82;99.18;98613.19;102303;1270;139281;-74
2023/12/26 11:30:32;;;;;;;2.50;1.50;;;;;;;9.80;98.98;98620.95;102542;1265;110889;-71
2023/12/26 11:33:00;;;;;;;2.30;1.50;;;;;;;9.78;98.97;98626.28;102517;1264;107103;-73
2023/12/26 11:35:27;;;;;;;3.00;1.60;;;;;;;9.78;98.93;98619.02;102405;1265;138947;-74
2023/12/26 11:37:56;;;;;;;2.30;1.40;;;;;;;9.78;98.51;98613.44;102592;1264;107603;-76
2023/12/26 11:40:23;;;;;;;2.90;1.30;;;;;;;9.83;98.12;98623.93;102772;1264;139194;-73
2023/12/26 11:42:51;;;;;;;3.50;1.50;;;;;;;9.85;97.92;98635.63;102654;1265;111211;-72
2023/12/26 11:45:18;;;;;;;2.00;1.10;;;;;;;9.83;97.79;98632.23;102575;1264;106976;-74
2023/12/26 11:47:45;;;;;;;2.00;1.50;;;;;;;9.83;97.79;98630.71;102611;1264;138152;-74
2023/12/26 11:50:12;;;;;;;3.20;1.70;;;;;;;9.81;97.70;98645.36;102401;1266;106890;-76
2023/12/26 11:52:39;;;;;;;2.40;1.60;;;;;;;9.79;97.74;98649.15;102240;1265;137209;-77
2023/12/26 11:55:06;;;;;;;1.90;1.40;;;;;;;9.75;97.41;98653.69;102492;1264;111982;-72
2023/12/26 11:57:33;;;;;;;3.10;1.70;;;;;;;9.72;97.37;98664.45;102330;1265;140085;-72
2023/12/26 12:00:00;;;;;;;2.00;1.50;;;;;;;9.69;97.10;98657.48;102535;1264;97847;-73
2023/12/26 12:02:30;;;;;;;1.80;1.40;;;;;;;9.67;96.75;98655.33;102528;1265;107425;-70